Time;durP1;ratioP1;P1;durP2;ratioP2;P2;SDS_P1;SDS_P2;PMS_P1;PMS_P2;Temp;Humidity;BMP_temperature;BMP_pressure;BME280_temperature;BME280_humidity;BME280_pressure;Samples;Min_cycle;Max_cycle;Signal;HPM_P1;HPM_P2
2023/05/25 00:00:14;;;;;;;13.82;4.45;;;;;;;10.86;82.24;102845.09;6094699;19;20011;-73
2023/05/25 00:02:19;;;;;;;10.30;4.25;;;;;;;10.86;82.29;102838.97;6092515;19;20021;-74
2023/05/25 00:04:25;;;;;;;10.73;4.15;;;;;;;10.83;81.88;102836.38;6091851;19;20074;-73
2023/05/25 00:06:36;;;;;;;11.90;4.53;;;;;;;10.78;82.26;102836.41;6092230;19;20783;-75
2023/05/25 00:08:41;;;;;;;11.13;4.38;;;;;;;10.76;82.63;102833.78;6089601;19;20006;-74
2023/05/25 00:10:49;;;;;;;13.15;4.22;;;;;;;10.79;82.82;102835.50;6093626;19;20010;-74
2023/05/25 00:12:56;;;;;;;8.73;4.68;;;;;;;10.74;83.00;102843.47;6094632;19;20191;-76
2023/05/25 00:15:01;;;;;;;10.70;4.68;;;;;;;10.82;82.94;102842.50;6099334;19;20417;-73
2023/05/25 00:17:08;;;;;;;15.10;4.72;;;;;;;10.89;83.24;102845.06;6096586;19;20404;-75
2023/05/25 00:19:13;;;;;;;11.82;4.80;;;;;;;10.89;83.32;102833.66;6097344;19;20052;-73
2023/05/25 00:21:19;;;;;;;9.20;4.35;;;;;;;10.89;83.20;102839.78;6092700;19;20479;-75
2023/05/25 00:23:24;;;;;;;13.65;4.63;;;;;;;10.85;83.86;102839.84;6097860;19;20031;-74
2023/05/25 00:25:31;;;;;;;13.10;4.43;;;;;;;10.75;84.00;102832.06;6099902;19;20400;-73
2023/05/25 00:27:40;;;;;;;9.73;4.03;;;;;;;10.72;83.63;102839.97;6097108;19;20010;-74
2023/05/25 00:29:45;;;;;;;14.45;4.80;;;;;;;10.73;83.87;102836.44;6095704;19;20007;-74
2023/05/25 00:31:51;;;;;;;10.15;4.18;;;;;;;10.71;84.70;102830.31;6096187;19;19998;-74
2023/05/25 00:33:56;;;;;;;12.18;4.70;;;;;;;10.70;84.47;102832.97;6098507;19;20010;-74
2023/05/25 00:36:02;;;;;;;15.50;4.82;;;;;;;10.71;84.93;102834.72;6096097;19;20003;-75
2023/05/25 00:38:07;;;;;;;11.43;4.50;;;;;;;10.71;85.75;102838.22;6098128;19;20094;-75
2023/05/25 00:40:16;;;;;;;11.90;5.68;;;;;;;10.86;85.20;102842.47;6099247;19;20035;-75
2023/05/25 00:42:22;;;;;;;13.70;5.18;;;;;;;10.96;85.94;102844.13;6098763;19;20003;-74
2023/05/25 00:44:30;;;;;;;10.75;4.10;;;;;;;11.01;85.08;102848.47;6098597;19;20015;-75
2023/05/25 00:46:36;;;;;;;10.45;4.90;;;;;;;11.03;85.52;102842.28;6095072;19;20045;-75
2023/05/25 00:48:41;;;;;;;16.20;4.95;;;;;;;11.05;85.19;102842.28;6097376;19;20010;-73
2023/05/25 00:50:46;;;;;;;13.07;4.82;;;;;;;11.10;85.95;102848.38;6098212;19;20016;-75
2023/05/25 00:52:56;;;;;;;11.32;4.78;;;;;;;11.16;85.52;102845.66;6092553;19;20006;-74
2023/05/25 00:55:04;;;;;;;12.50;4.50;;;;;;;11.26;85.46;102838.53;6099837;19;20003;-74
2023/05/25 00:57:11;;;;;;;11.95;4.65;;;;;;;11.28;85.44;102840.28;6096118;19;20082;-74
2023/05/25 00:59:26;;;;;;;16.80;4.93;;;;;;;11.33;85.17;102838.47;6098678;19;20007;-74
2023/05/25 01:01:40;;;;;;;9.70;4.55;;;;;;;11.43;85.19;102844.50;6094779;19;20383;-73
2023/05/25 01:03:52;;;;;;;14.05;5.20;;;;;;;11.42;84.88;102846.22;6095441;19;20005;-75
2023/05/25 01:06:00;;;;;;;11.13;4.47;;;;;;;11.43;84.88;102853.25;6097332;19;20014;-74
2023/05/25 01:08:08;;;;;;;14.52;6.03;;;;;;;11.38;84.95;102849.81;6096838;19;20003;-75
2023/05/25 01:10:17;;;;;;;10.75;4.85;;;;;;;11.34;85.10;102857.75;6100463;19;20006;-74
2023/05/25 01:12:26;;;;;;;16.55;4.70;;;;;;;11.29;85.17;102855.16;6103899;19;20409;-75
2023/05/25 01:14:34;;;;;;;18.80;5.68;;;;;;;11.31;85.05;102852.53;6104586;19;20006;-74
2023/05/25 01:16:46;;;;;;;12.73;4.50;;;;;;;11.28;85.39;102858.69;6100409;19;20039;-75
2023/05/25 01:18:54;;;;;;;11.98;4.72;;;;;;;11.26;85.43;102860.47;6100729;19;20028;-74
2023/05/25 01:21:12;;;;;;;13.32;4.72;;;;;;;11.31;85.49;102860.41;6104048;19;20016;-74
2023/05/25 01:23:19;;;;;;;14.38;5.13;;;;;;;11.27;85.17;102862.22;6102829;19;20011;-74
2023/05/25 01:25:28;;;;;;;13.52;5.40;;;;;;;11.24;85.76;102859.59;6104334;19;20038;-74
2023/05/25 01:27:42;;;;;;;16.13;5.20;;;;;;;11.17;86.13;102857.94;6102400;19;20452;-75
2023/05/25 01:29:49;;;;;;;12.43;4.38;;;;;;;11.14;86.22;102858.84;6103839;19;20582;-75
2023/05/25 01:31:56;;;;;;;13.48;4.88;;;;;;;11.12;85.64;102862.38;6102632;19;20007;-75
2023/05/25 01:34:02;;;;;;;11.32;4.88;;;;;;;11.07;86.00;102859.78;6101155;19;20086;-74
2023/05/25 01:36:10;;;;;;;12.75;5.13;;;;;;;11.07;86.13;102864.19;6101131;19;20011;-75
2023/05/25 01:38:16;;;;;;;15.57;4.90;;;;;;;11.02;85.97;102868.63;6099651;19;20033;-74
2023/05/25 01:40:22;;;;;;;9.15;4.97;;;;;;;10.95;86.14;102866.06;6101942;19;20151;-73
2023/05/25 01:42:27;;;;;;;10.98;4.65;;;;;;;10.85;86.59;102867.03;6099960;19;20013;-74
2023/05/25 01:44:32;;;;;;;11.45;4.97;;;;;;;10.79;86.82;102874.97;6097841;19;19998;-74
2023/05/25 01:46:42;;;;;;;13.18;5.10;;;;;;;10.79;86.85;102874.09;6095959;19;20015;-74
2023/05/25 01:49:04;;;;;;;14.20;5.10;;;;;;;10.69;86.97;102868.94;6098953;19;20593;-74
2023/05/25 01:51:19;;;;;;;11.02;4.93;;;;;;;10.67;87.24;102875.94;6099007;19;20312;-74
2023/05/25 01:53:29;;;;;;;15.48;5.50;;;;;;;10.59;87.72;102876.91;6094839;19;20453;-74
2023/05/25 01:55:39;;;;;;;11.82;4.95;;;;;;;10.51;87.71;102885.72;6100537;19;20018;-74
2023/05/25 01:57:47;;;;;;;15.90;5.65;;;;;;;10.51;87.75;102875.19;6097446;19;20007;-74
2023/05/25 02:00:01;;;;;;;15.45;5.95;;;;;;;10.48;87.55;102883.13;6098133;19;20040;-74
2023/05/25 02:02:07;;;;;;;13.80;6.05;;;;;;;10.44;87.47;102878.75;6099438;19;20469;-74
2023/05/25 02:04:13;;;;;;;11.50;4.97;;;;;;;10.38;87.73;102881.44;6094070;19;20011;-74
2023/05/25 02:06:20;;;;;;;14.10;6.68;;;;;;;10.32;88.18;102878.81;6097704;19;20022;-74
2023/05/25 02:08:26;;;;;;;15.88;5.65;;;;;;;10.31;88.03;102887.59;6099204;19;20002;-74
2023/05/25 02:10:33;;;;;;;16.52;6.28;;;;;;;10.27;88.74;102885.84;6099053;19;20010;-73
2023/05/25 02:12:38;;;;;;;15.55;5.57;;;;;;;10.29;88.67;102882.38;6096187;19;20873;-73
2023/05/25 02:14:44;;;;;;;10.43;5.13;;;;;;;10.29;88.75;102886.72;6094345;19;20428;-73
2023/05/25 02:16:49;;;;;;;14.30;6.07;;;;;;;10.28;88.50;102888.50;6096725;19;20118;-74
2023/05/25 02:18:56;;;;;;;19.52;7.28;;;;;;;10.26;89.00;102890.22;6100102;19;20038;-74
2023/05/25 02:21:01;;;;;;;17.55;6.00;;;;;;;10.20;88.63;102884.16;6098655;19;20593;-74
2023/05/25 02:23:09;;;;;;;13.43;6.35;;;;;;;10.20;89.08;102889.41;6098132;19;20014;-74
2023/05/25 02:25:14;;;;;;;17.05;6.00;;;;;;;10.14;89.33;102894.66;6094580;19;20006;-74
2023/05/25 02:27:20;;;;;;;14.85;6.22;;;;;;;10.09;89.11;102881.59;6100195;19;20035;-74
2023/05/25 02:29:26;;;;;;;15.45;5.90;;;;;;;10.04;89.40;102883.38;6096542;19;20006;-73
2023/05/25 02:31:31;;;;;;;14.75;6.55;;;;;;;10.02;89.19;102890.38;6097917;19;21566;-74
2023/05/25 02:33:37;;;;;;;17.00;6.90;;;;;;;9.98;89.66;102899.13;6096221;19;20479;-74
2023/05/25 02:35:42;;;;;;;13.07;6.53;;;;;;;9.96;89.58;102896.53;6096952;19;20013;-74
2023/05/25 02:37:47;;;;;;;14.77;6.95;;;;;;;9.96;89.97;102899.16;6099559;19;20035;-74
2023/05/25 02:39:57;;;;;;;16.70;7.32;;;;;;;9.96;89.90;102899.16;6097641;19;20651;-73
2023/05/25 02:42:02;;;;;;;15.70;6.97;;;;;;;9.97;90.18;102893.00;6097768;19;20006;-73
2023/05/25 02:44:07;;;;;;;18.08;7.47;;;;;;;9.95;89.59;102900.03;6093444;19;20531;-74
2023/05/25 02:46:13;;;;;;;21.83;7.97;;;;;;;9.94;90.57;102897.41;6099571;19;20010;-73
2023/05/25 02:48:18;;;;;;;16.13;6.35;;;;;;;9.91;90.06;102898.31;6095184;19;20014;-74
2023/05/25 02:50:24;;;;;;;17.25;8.13;;;;;;;9.90;91.04;102896.56;6100017;19;20013;-74
2023/05/25 02:52:31;;;;;;;21.23;8.63;;;;;;;9.85;90.18;102893.09;6092969;19;20007;-74
2023/05/25 02:54:36;;;;;;;15.88;7.55;;;;;;;9.83;90.24;102894.84;6094619;19;20443;-74
2023/05/25 02:56:44;;;;;;;18.02;8.05;;;;;;;9.82;90.21;102904.47;6100137;19;20082;-74
2023/05/25 02:58:49;;;;;;;17.67;7.82;;;;;;;9.79;90.36;102903.59;6096666;19;20011;-73
2023/05/25 03:00:57;;;;;;;20.65;8.00;;;;;;;9.72;90.99;102909.78;6099245;19;20044;-74
2023/05/25 03:03:02;;;;;;;18.65;8.07;;;;;;;9.72;90.42;102907.16;6093195;19;20011;-74
2023/05/25 03:05:09;;;;;;;22.27;8.60;;;;;;;9.72;91.65;102901.91;6096254;19;20021;-74
2023/05/25 03:07:15;;;;;;;22.73;10.05;;;;;;;9.72;91.32;102907.16;6098448;19;20017;-74
2023/05/25 03:09:20;;;;;;;18.60;7.50;;;;;;;9.70;91.26;102906.28;6094980;19;20420;-74
2023/05/25 03:11:30;;;;;;;18.50;8.25;;;;;;;9.68;90.73;102908.91;6097905;19;20436;-74
2023/05/25 03:13:37;;;;;;;20.30;9.48;;;;;;;9.71;91.50;102916.75;6095466;19;20030;-73
2023/05/25 03:15:42;;;;;;;19.33;8.85;;;;;;;9.71;91.78;102914.13;6096886;19;20003;-74
2023/05/25 03:17:48;;;;;;;20.17;9.10;;;;;;;9.71;91.84;102915.88;6096640;19;20467;-74
2023/05/25 03:19:55;;;;;;;21.35;9.00;;;;;;;9.74;91.78;102918.50;6098037;19;20084;-74
2023/05/25 03:22:01;;;;;;;18.70;9.65;;;;;;;9.72;91.80;102910.66;6095289;19;20609;-73
2023/05/25 03:24:06;;;;;;;23.42;9.68;;;;;;;9.70;91.91;102909.78;6092879;19;20019;-74
2023/05/25 03:26:11;;;;;;;20.20;9.77;;;;;;;9.71;92.01;102911.50;6096529;19;20006;-74
2023/05/25 03:28:17;;;;;;;23.48;8.65;;;;;;;9.68;91.70;102911.53;6095115;19;20002;-74
2023/05/25 03:30:28;;;;;;;19.88;9.18;;;;;;;9.62;92.13;102917.66;6092998;19;20011;-74
2023/05/25 03:32:33;;;;;;;26.52;10.23;;;;;;;9.57;91.64;102911.56;6096673;19;20006;-74
2023/05/25 03:34:43;;;;;;;26.98;10.50;;;;;;;9.54;91.25;102916.81;6091089;19;20003;-73
2023/05/25 03:36:49;;;;;;;17.98;8.77;;;;;;;9.51;91.43;102908.09;6094907;19;20491;-74
2023/05/25 03:38:57;;;;;;;25.23;8.90;;;;;;;9.47;91.41;102912.47;6095454;19;20416;-74
2023/05/25 03:41:02;;;;;;;26.23;9.60;;;;;;;9.41;91.75;102915.09;6097286;19;20015;-74
2023/05/25 03:43:07;;;;;;;19.73;9.10;;;;;;;9.38;92.39;102917.75;6097806;19;20500;-74
2023/05/25 03:45:13;;;;;;;18.75;8.23;;;;;;;9.36;91.80;102920.34;6094010;19;20587;-74
2023/05/25 03:47:21;;;;;;;21.70;9.35;;;;;;;9.33;91.65;102911.63;6098644;19;20299;-74
2023/05/25 03:49:26;;;;;;;17.40;8.02;;;;;;;9.32;91.99;102917.75;6097116;19;20044;-74
2023/05/25 03:51:32;;;;;;;21.50;10.25;;;;;;;9.31;92.22;102916.88;6096976;19;20010;-73
2023/05/25 03:53:37;;;;;;;21.83;10.02;;;;;;;9.27;92.12;102922.13;6089908;19;19999;-75
2023/05/25 03:55:42;;;;;;;22.40;10.07;;;;;;;9.28;92.66;102923.88;6096114;19;20017;-75
2023/05/25 03:57:48;;;;;;;28.20;10.77;;;;;;;9.28;93.36;102930.00;6095187;19;19998;-73
2023/05/25 03:59:53;;;;;;;23.05;9.60;;;;;;;9.27;92.88;102928.25;6095975;19;20014;-73
2023/05/25 04:02:01;;;;;;;23.17;10.10;;;;;;;9.26;92.63;102925.63;6096971;19;20006;-73
2023/05/25 04:04:08;;;;;;;25.77;9.70;;;;;;;9.28;93.62;102932.63;6092237;19;20015;-73
2023/05/25 04:06:18;;;;;;;23.25;10.23;;;;;;;9.27;93.71;102928.25;6092464;19;20002;-73
2023/05/25 04:08:23;;;;;;;23.33;10.27;;;;;;;9.22;92.54;102925.63;6096200;19;20038;-73
2023/05/25 04:10:31;;;;;;;24.65;10.45;;;;;;;9.21;93.03;102937.00;6099067;19;20006;-76
2023/05/25 04:12:36;;;;;;;21.98;9.65;;;;;;;9.19;92.47;102936.13;6095748;19;20010;-75
2023/05/25 04:14:41;;;;;;;23.23;10.15;;;;;;;9.20;92.11;102934.38;6097290;19;20018;-75
2023/05/25 04:16:46;;;;;;;30.05;12.32;;;;;;;9.20;92.50;102940.50;6097239;19;20010;-72
2023/05/25 04:18:52;;;;;;;25.10;10.85;;;;;;;9.13;92.35;102936.13;6096727;19;20014;-72
2023/05/25 04:21:01;;;;;;;23.42;10.68;;;;;;;9.15;92.26;102937.00;6099599;19;20006;-73
2023/05/25 04:23:06;;;;;;;27.40;12.60;;;;;;;9.20;93.52;102942.25;6100367;19;20372;-72
2023/05/25 04:25:12;;;;;;;25.73;10.48;;;;;;;9.21;92.83;102939.63;6097870;19;20041;-73
2023/05/25 04:27:19;;;;;;;21.00;9.18;;;;;;;9.23;92.82;102943.13;6097724;19;20369;-73
2023/05/25 04:29:24;;;;;;;25.25;10.02;;;;;;;9.27;93.16;102946.63;6096677;19;20010;-73
2023/05/25 04:31:29;;;;;;;31.35;11.10;;;;;;;9.27;92.96;102946.63;6098450;19;20027;-72
2023/05/25 04:33:37;;;;;;;21.77;10.07;;;;;;;9.27;92.78;102940.47;6093451;19;20003;-73
2023/05/25 04:35:42;;;;;;;20.73;10.15;;;;;;;9.31;93.12;102947.47;6097654;19;20460;-72
2023/05/25 04:37:53;;;;;;;23.65;10.52;;;;;;;9.37;92.89;102947.47;6096492;19;20010;-73
2023/05/25 04:40:00;;;;;;;24.90;11.13;;;;;;;9.43;92.86;102948.34;6096641;19;20014;-72
2023/05/25 04:42:06;;;;;;;26.42;10.82;;;;;;;9.49;93.23;102955.31;6094751;19;20027;-74
2023/05/25 04:44:12;;;;;;;21.90;10.38;;;;;;;9.61;93.72;102963.19;6091889;19;20015;-72
2023/05/25 04:46:18;;;;;;;25.70;10.38;;;;;;;9.70;92.63;102956.16;6095303;19;20017;-73
2023/05/25 04:48:23;;;;;;;27.25;11.38;;;;;;;9.81;92.89;102968.34;6098827;19;20046;-72
2023/05/25 04:50:38;;;;;;;24.33;10.32;;;;;;;9.92;92.53;102964.81;6094530;19;20373;-73
2023/05/25 04:52:43;;;;;;;23.65;10.15;;;;;;;10.05;92.73;102959.50;6087141;19;20014;-72
2023/05/25 04:54:53;;;;;;;24.02;11.95;;;;;;;10.22;92.13;102966.47;6096425;19;20074;-73
2023/05/25 04:57:00;;;;;;;23.23;10.10;;;;;;;10.40;91.42;102969.03;6097479;19;20612;-73
2023/05/25 04:59:06;;;;;;;25.88;11.65;;;;;;;10.56;91.49;102967.19;6096387;19;20010;-71
2023/05/25 05:01:11;;;;;;;30.63;13.00;;;;;;;10.71;90.98;102968.81;6092569;19;20677;-73
2023/05/25 05:03:16;;;;;;;30.45;13.48;;;;;;;10.90;90.53;102974.81;6096367;19;20729;-72
2023/05/25 05:05:23;;;;;;;33.50;13.43;;;;;;;11.09;90.06;102967.66;6095014;19;20769;-72
2023/05/25 05:07:29;;;;;;;33.55;12.90;;;;;;;11.27;89.93;102970.13;6098014;19;19998;-72
2023/05/25 05:09:34;;;;;;;28.35;12.88;;;;;;;11.47;89.04;102969.06;6095549;19;20009;-72
2023/05/25 05:11:41;;;;;;;28.05;13.13;;;;;;;11.68;88.84;102974.09;6094819;19;20006;-72
2023/05/25 05:13:46;;;;;;;31.05;13.32;;;;;;;11.85;88.04;102980.06;6096416;19;20014;-72
2023/05/25 05:15:53;;;;;;;29.33;13.13;;;;;;;12.08;87.65;102973.66;6095001;19;20010;-73
2023/05/25 05:18:01;;;;;;;32.53;13.68;;;;;;;12.27;86.92;102982.22;6099086;19;20447;-73
2023/05/25 05:20:07;;;;;;;31.27;13.35;;;;;;;12.44;86.45;102980.22;6094241;19;20013;-73
2023/05/25 05:22:14;;;;;;;27.60;11.98;;;;;;;12.59;84.86;102975.63;6091423;19;20042;-73
2023/05/25 05:24:20;;;;;;;27.20;11.88;;;;;;;12.63;84.38;102978.16;6093980;19;20090;-73
2023/05/25 05:26:26;;;;;;;31.05;12.50;;;;;;;12.96;83.96;102982.06;6092493;19;20003;-73
2023/05/25 05:28:35;;;;;;;32.00;12.65;;;;;;;13.14;83.19;102972.13;6092724;19;20027;-73
2023/05/25 05:30:40;;;;;;;27.13;11.75;;;;;;;13.20;82.37;102972.00;6090315;19;20003;-73
2023/05/25 05:32:45;;;;;;;29.20;11.82;;;;;;;13.43;81.96;102976.00;6090483;19;20035;-74
2023/05/25 05:34:50;;;;;;;31.00;11.32;;;;;;;13.54;81.57;102980.22;6094044;19;20364;-73
2023/05/25 05:36:58;;;;;;;33.90;13.13;;;;;;;13.18;81.60;102982.56;6092212;19;20026;-73
2023/05/25 05:39:03;;;;;;;25.55;11.88;;;;;;;12.84;82.07;102990.16;6091063;19;20451;-73
2023/05/25 05:41:12;;;;;;;27.45;10.13;;;;;;;12.74;82.17;102993.84;6093436;19;20030;-74
2023/05/25 05:43:17;;;;;;;29.83;11.65;;;;;;;12.70;82.88;102990.38;6085523;19;20082;-73
2023/05/25 05:45:27;;;;;;;22.13;11.25;;;;;;;12.74;82.70;102996.47;6088496;19;20011;-73
2023/05/25 05:47:35;;;;;;;29.83;11.30;;;;;;;13.10;82.67;102997.66;6088053;19;20010;-73
2023/05/25 05:49:43;;;;;;;26.00;10.88;;;;;;;13.77;81.84;102992.09;6086858;19;20447;-73
2023/05/25 05:51:49;;;;;;;30.55;13.15;;;;;;;14.32;79.92;102995.38;6091228;19;20007;-73
2023/05/25 05:53:55;;;;;;;31.10;11.75;;;;;;;14.50;76.86;102995.84;6086900;19;20561;-73
2023/05/25 05:56:01;;;;;;;29.63;11.63;;;;;;;14.63;76.02;103001.75;6095435;19;20105;-73
2023/05/25 05:58:06;;;;;;;18.05;8.75;;;;;;;14.77;75.65;103001.47;6096054;19;20038;-72
2023/05/25 06:00:12;;;;;;;17.25;7.47;;;;;;;14.93;73.78;102994.88;6097580;19;20039;-73
2023/05/25 06:02:20;;;;;;;24.23;7.22;;;;;;;14.88;72.54;103002.06;6100206;19;20011;-73
2023/05/25 06:04:27;;;;;;;16.73;7.10;;;;;;;14.86;71.46;103003.88;6097261;19;20719;-72
2023/05/25 06:06:33;;;;;;;16.52;7.13;;;;;;;15.13;71.95;103006.75;6097600;19;20562;-73
2023/05/25 06:08:42;;;;;;;17.95;6.35;;;;;;;15.50;70.46;103008.47;6099843;19;20359;-72
2023/05/25 06:10:47;;;;;;;16.73;6.72;;;;;;;15.42;69.18;103013.97;6104596;19;20019;-73
2023/05/25 06:12:53;;;;;;;16.02;6.72;;;;;;;15.37;67.50;103010.56;6104017;19;20114;-71
2023/05/25 06:15:00;;;;;;;20.15;6.78;;;;;;;15.48;68.76;103004.97;6104830;19;20027;-74
2023/05/25 06:17:05;;;;;;;18.70;6.32;;;;;;;15.87;68.74;103012.78;6104033;19;20013;-72
2023/05/25 06:19:13;;;;;;;18.70;6.32;;;;;;;16.05;67.22;103019.34;6105133;19;20077;-72
2023/05/25 06:21:19;;;;;;;15.32;6.38;;;;;;;16.10;66.65;103006.84;6103793;19;20010;-73
2023/05/25 06:23:24;;;;;;;18.38;7.97;;;;;;;16.16;66.27;103020.78;6105179;19;20017;-73
2023/05/25 06:25:30;;;;;;;16.60;6.28;;;;;;;16.14;66.14;103017.31;6101190;19;20010;-72
2023/05/25 06:27:35;;;;;;;20.50;7.55;;;;;;;15.49;66.49;103019.97;6095824;19;20015;-73
2023/05/25 06:29:40;;;;;;;22.85;7.10;;;;;;;15.04;68.26;103017.59;6097816;19;20381;-73
2023/05/25 06:31:45;;;;;;;15.80;6.72;;;;;;;15.08;69.00;103017.47;6096376;19;20010;-73
2023/05/25 06:33:50;;;;;;;21.02;8.02;;;;;;;14.68;69.94;103020.19;6101295;19;20425;-73
2023/05/25 06:36:01;;;;;;;17.95;7.30;;;;;;;14.54;70.68;103022.28;6099105;19;20039;-73
2023/05/25 06:38:06;;;;;;;22.83;7.97;;;;;;;14.40;71.29;103025.19;6098950;19;20027;-73
2023/05/25 06:40:12;;;;;;;22.05;7.95;;;;;;;14.53;71.73;103028.47;6101072;19;20010;-72
2023/05/25 06:42:17;;;;;;;15.02;7.05;;;;;;;14.56;71.50;103036.34;6098707;19;20430;-73
2023/05/25 06:44:22;;;;;;;21.70;9.95;;;;;;;14.55;71.76;103029.31;6100355;19;20015;-72
2023/05/25 06:46:28;;;;;;;20.98;7.40;;;;;;;14.52;71.42;103026.72;6100982;19;20003;-72
2023/05/25 06:48:33;;;;;;;16.98;7.55;;;;;;;14.41;72.09;103025.16;6101532;19;20832;-73
2023/05/25 06:50:38;;;;;;;19.92;6.95;;;;;;;14.51;72.06;103033.78;6096207;19;20644;-73
2023/05/25 06:52:46;;;;;;;21.50;6.93;;;;;;;14.41;72.02;103041.03;6096787;19;20657;-72
2023/05/25 06:54:54;;;;;;;19.00;6.72;;;;;;;14.57;71.27;103036.31;6094000;19;20006;-72
2023/05/25 06:57:00;;;;;;;17.33;6.93;;;;;;;14.52;71.52;103039.94;6098548;19;20014;-72
2023/05/25 06:59:05;;;;;;;15.48;5.88;;;;;;;14.55;71.10;103048.69;6095209;19;20015;-72
2023/05/25 07:01:10;;;;;;;15.98;5.97;;;;;;;15.11;70.99;103040.34;6099332;19;20064;-72
2023/05/25 07:03:15;;;;;;;16.38;6.55;;;;;;;15.43;69.33;103043.97;6097662;19;20007;-73
2023/05/25 07:05:21;;;;;;;15.85;5.88;;;;;;;15.24;68.70;103054.16;6097148;19;20046;-72
2023/05/25 07:07:26;;;;;;;18.92;6.85;;;;;;;16.04;67.10;103044.16;6095314;19;20015;-72
2023/05/25 07:09:36;;;;;;;15.75;5.38;;;;;;;16.26;65.96;103053.22;6097373;19;20796;-73
2023/05/25 07:11:41;;;;;;;18.10;6.97;;;;;;;16.83;64.68;103051.56;6099112;19;20013;-73
2023/05/25 07:13:47;;;;;;;13.27;5.53;;;;;;;16.93;63.63;103057.41;6097770;19;20240;-73
2023/05/25 07:15:53;;;;;;;19.70;6.95;;;;;;;16.53;65.20;103054.19;6100135;19;20599;-74
2023/05/25 07:17:59;;;;;;;18.95;8.05;;;;;;;16.67;64.96;103064.41;6098388;19;20013;-74
2023/05/25 07:20:05;;;;;;;14.07;6.85;;;;;;;16.28;65.91;103063.81;6100895;19;20022;-74
2023/05/25 07:22:10;;;;;;;15.65;7.13;;;;;;;15.98;66.06;103061.97;6099744;19;20451;-74
2023/05/25 07:24:17;;;;;;;18.75;7.25;;;;;;;15.86;66.90;103061.44;6098822;19;20010;-73
2023/05/25 07:26:27;;;;;;;20.98;8.05;;;;;;;15.82;66.60;103063.28;6098770;19;20537;-74
2023/05/25 07:28:32;;;;;;;17.45;7.82;;;;;;;16.02;66.86;103060.97;6103853;19;20664;-74
2023/05/25 07:30:38;;;;;;;15.98;7.82;;;;;;;16.13;66.10;103059.78;6101304;19;20007;-74
2023/05/25 07:32:43;;;;;;;21.35;8.50;;;;;;;16.65;65.11;103072.41;6100107;19;20011;-74
2023/05/25 07:34:51;;;;;;;15.85;7.57;;;;;;;17.02;63.78;103057.13;6098162;19;20637;-75
2023/05/25 07:36:56;;;;;;;21.38;7.32;;;;;;;17.18;63.82;103057.50;6095501;19;20137;-74
2023/05/25 07:39:01;;;;;;;18.25;7.18;;;;;;;17.49;63.53;103063.53;6099429;19;20015;-74
2023/05/25 07:41:07;;;;;;;18.13;6.30;;;;;;;17.43;62.28;103065.50;6103280;19;20018;-74
2023/05/25 07:43:15;;;;;;;13.10;4.93;;;;;;;17.94;58.43;103062.00;6099306;19;20007;-74
2023/05/25 07:45:20;;;;;;;14.48;6.97;;;;;;;17.97;59.53;103062.75;6099101;19;20494;-76
2023/05/25 07:47:26;;;;;;;15.73;6.28;;;;;;;18.35;57.42;103067.56;6101149;19;20405;-75
2023/05/25 07:49:34;;;;;;;10.32;3.95;;;;;;;18.00;56.70;103067.09;6099366;19;20007;-75
2023/05/25 07:51:41;;;;;;;10.88;4.53;;;;;;;17.89;56.05;103075.47;6098899;19;20404;-74
2023/05/25 07:53:46;;;;;;;10.02;3.92;;;;;;;18.45;56.35;103068.09;6091678;19;20417;-75
2023/05/25 07:55:51;;;;;;;11.52;4.80;;;;;;;19.06;54.27;103073.69;6099470;19;20104;-75
2023/05/25 07:57:56;;;;;;;10.90;4.57;;;;;;;19.17;54.22;103073.25;6095957;19;20649;-74
2023/05/25 08:00:06;;;;;;;10.45;4.78;;;;;;;19.31;52.75;103073.56;6097689;19;20095;-75
2023/05/25 08:02:11;;;;;;;10.38;4.78;;;;;;;18.86;53.79;103075.38;6100314;19;20506;-76
2023/05/25 08:04:23;;;;;;;13.00;4.72;;;;;;;18.40;53.77;103079.81;6094234;19;20531;-74
2023/05/25 08:06:29;;;;;;;10.85;4.70;;;;;;;18.62;53.94;103081.66;6096377;19;20366;-74
2023/05/25 08:08:35;;;;;;;15.55;5.03;;;;;;;18.35;54.98;103076.44;6095616;19;20006;-74
2023/05/25 08:10:40;;;;;;;13.95;4.30;;;;;;;18.09;54.80;103087.16;6093048;19;20496;-74
2023/05/25 08:12:45;;;;;;;12.68;4.68;;;;;;;18.07;54.87;103086.38;6097796;19;20512;-75
2023/05/25 08:14:53;;;;;;;9.77;4.32;;;;;;;18.74;53.81;103088.28;6098615;19;20010;-74
2023/05/25 08:17:01;;;;;;;10.63;5.32;;;;;;;18.91;53.26;103090.31;6096731;19;20002;-74
2023/05/25 08:19:06;;;;;;;9.05;4.22;;;;;;;19.38;52.59;103087.47;6099859;19;20021;-74
2023/05/25 08:21:11;;;;;;;15.88;5.05;;;;;;;19.12;51.99;103086.78;6097594;19;20014;-74
2023/05/25 08:23:19;;;;;;;13.07;5.80;;;;;;;18.91;53.54;103085.00;6100258;19;20011;-74
2023/05/25 08:25:24;;;;;;;9.82;3.72;;;;;;;19.23;51.59;103083.69;6098032;19;20164;-74
2023/05/25 08:27:29;;;;;;;10.55;4.35;;;;;;;18.55;53.05;103088.97;6096052;19;20615;-75
2023/05/25 08:29:37;;;;;;;10.45;3.88;;;;;;;18.19;53.86;103105.44;6098050;19;20074;-74
2023/05/25 08:31:44;;;;;;;12.20;4.60;;;;;;;18.49;53.74;103104.34;6098829;19;20373;-74
2023/05/25 08:33:52;;;;;;;9.57;4.03;;;;;;;18.32;54.35;103103.16;6095873;19;20013;-74
2023/05/25 08:35:57;;;;;;;12.95;4.53;;;;;;;18.16;54.83;103110.84;6098716;19;20317;-74
2023/05/25 08:38:03;;;;;;;12.95;3.97;;;;;;;18.00;55.26;103109.66;6098205;19;20475;-74
2023/05/25 08:40:10;;;;;;;11.93;3.97;;;;;;;18.06;55.40;103108.56;6100086;19;20511;-73
2023/05/25 08:42:16;;;;;;;12.80;4.38;;;;;;;17.94;55.48;103105.44;6097473;19;20082;-74
2023/05/25 08:44:22;;;;;;;11.10;3.90;;;;;;;17.75;55.55;103104.31;6097203;19;20003;-74
2023/05/25 08:46:32;;;;;;;9.80;4.25;;;;;;;17.77;55.90;103106.00;6096747;19;20003;-74
2023/05/25 08:48:39;;;;;;;11.75;3.85;;;;;;;17.93;56.11;103110.78;6090649;19;20014;-74
2023/05/25 08:50:51;;;;;;;8.50;4.10;;;;;;;18.54;54.29;103113.88;6095645;19;20023;-74
2023/05/25 08:52:59;;;;;;;10.05;3.85;;;;;;;18.88;52.60;103106.41;6085504;19;20015;-74
2023/05/25 08:55:06;;;;;;;11.00;3.80;;;;;;;18.24;53.26;103115.03;6090397;19;20087;-74
2023/05/25 08:57:16;;;;;;;10.80;4.18;;;;;;;17.92;54.46;103106.41;6096106;19;20029;-76
2023/05/25 08:59:30;;;;;;;;;;;;;;;17.89;54.86;103104.72;6088298;19;20476;-75
2023/05/25 09:01:40;;;;;;;10.43;3.47;;;;;;;17.59;54.74;103109.28;6091796;19;19911;-75
2023/05/25 09:03:48;;;;;;;11.98;3.70;;;;;;;17.57;54.98;103118.22;6096343;19;20030;-75
2023/05/25 09:06:01;;;;;;;9.88;3.67;;;;;;;17.37;55.77;103114.44;6098545;19;20355;-75
2023/05/25 09:08:08;;;;;;;10.70;3.92;;;;;;;17.50;55.64;103114.91;6096939;19;20413;-76
2023/05/25 09:10:14;;;;;;;11.57;3.63;;;;;;;17.48;55.53;103116.72;6089356;19;20011;-75
2023/05/25 09:12:23;;;;;;;8.77;3.78;;;;;;;17.39;55.92;103117.06;6088693;19;20010;-76
2023/05/25 09:14:29;;;;;;;9.98;3.88;;;;;;;17.24;56.81;103121.06;6092455;19;20002;-76
2023/05/25 09:16:35;;;;;;;12.98;3.72;;;;;;;17.09;56.90;103118.00;6093073;19;20014;-75
2023/05/25 09:18:40;;;;;;;9.90;3.67;;;;;;;17.31;56.91;103118.16;6091478;19;20338;-74
2023/05/25 09:20:45;;;;;;;9.88;3.70;;;;;;;17.28;57.24;103123.59;6096013;19;20118;-75
2023/05/25 09:22:54;;;;;;;8.52;4.20;;;;;;;17.22;57.54;103123.78;6101307;19;20336;-74
2023/05/25 09:25:01;;;;;;;12.77;4.72;;;;;;;17.16;57.80;103117.78;6097119;19;21371;-74
2023/05/25 09:27:07;;;;;;;10.02;3.45;;;;;;;17.21;58.32;103115.84;6089708;19;20046;-75
2023/05/25 09:29:15;;;;;;;10.65;4.28;;;;;;;17.07;58.74;103119.81;6090726;19;20403;-75
2023/05/25 09:31:21;;;;;;;9.13;3.85;;;;;;;17.13;59.10;103112.56;6097928;19;20446;-74
2023/05/25 09:33:27;;;;;;;8.25;3.70;;;;;;;17.01;57.99;103114.72;6097511;19;20090;-75
2023/05/25 09:35:33;;;;;;;11.00;3.40;;;;;;;16.82;58.32;103117.03;6101899;19;20021;-75
2023/05/25 09:37:39;;;;;;;8.55;3.50;;;;;;;16.73;58.72;103119.09;6104079;19;20010;-75
2023/05/25 09:39:47;;;;;;;9.40;3.88;;;;;;;16.78;58.82;103111.91;6105503;19;20011;-75
2023/05/25 09:41:53;;;;;;;8.35;3.58;;;;;;;16.86;58.45;103115.19;6106455;19;20415;-75
2023/05/25 09:44:00;;;;;;;10.18;3.42;;;;;;;16.82;57.97;103117.03;6103239;19;20072;-75